sensor_id;sensor_type;location;lat;lon;timestamp;P1;durP1;ratioP1;P2;durP2;ratioP2
63008;SDS011;49099;28.428;-16.488;2022-10-18T00:00:06;9.30;;;2.00;;
63008;SDS011;49099;28.428;-16.488;2022-10-18T00:02:33;6.78;;;2.15;;
63008;SDS011;49099;28.428;-16.488;2022-10-18T00:05:00;7.65;;;1.85;;
63008;SDS011;49099;28.428;-16.488;2022-10-18T00:07:27;11.55;;;1.98;;
63008;SDS011;49099;28.428;-16.488;2022-10-18T00:09:55;10.10;;;1.98;;
63008;SDS011;49099;28.428;-16.488;2022-10-18T00:12:22;7.75;;;2.50;;
63008;SDS011;49099;28.428;-16.488;2022-10-18T00:14:49;9.32;;;2.08;;
63008;SDS011;49099;28.428;-16.488;2022-10-18T00:17:16;9.02;;;2.10;;
63008;SDS011;49099;28.428;-16.488;2022-10-18T00:19:44;8.30;;;2.17;;
63008;SDS011;49099;28.428;-16.488;2022-10-18T00:22:12;7.80;;;2.15;;
63008;SDS011;49099;28.428;-16.488;2022-10-18T00:24:39;10.65;;;2.10;;
63008;SDS011;49099;28.428;-16.488;2022-10-18T00:27:06;11.73;;;1.90;;
63008;SDS011;49099;28.428;-16.488;2022-10-18T00:29:33;9.70;;;2.10;;
63008;SDS011;49099;28.428;-16.488;2022-10-18T00:32:00;12.68;;;2.47;;
63008;SDS011;49099;28.428;-16.488;2022-10-18T00:34:27;7.05;;;1.83;;
63008;SDS011;49099;28.428;-16.488;2022-10-18T00:36:55;6.35;;;2.13;;
63008;SDS011;49099;28.428;-16.488;2022-10-18T00:39:22;9.05;;;2.08;;
63008;SDS011;49099;28.428;-16.488;2022-10-18T00:41:49;10.55;;;2.10;;
63008;SDS011;49099;28.428;-16.488;2022-10-18T00:46:44;7.70;;;2.10;;
63008;SDS011;49099;28.428;-16.488;2022-10-18T00:49:18;7.60;;;2.22;;
63008;SDS011;49099;28.428;-16.488;2022-10-18T00:51:49;11.50;;;2.15;;
63008;SDS011;49099;28.428;-16.488;2022-10-18T00:54:38;7.18;;;2.10;;
63008;SDS011;49099;28.428;-16.488;2022-10-18T00:57:07;10.02;;;2.50;;
63008;SDS011;49099;28.428;-16.488;2022-10-18T00:59:35;12.13;;;2.60;;
63008;SDS011;49099;28.428;-16.488;2022-10-18T01:02:03;5.15;;;1.52;;
63008;SDS011;49099;28.428;-16.488;2022-10-18T01:04:32;8.68;;;2.28;;
63008;SDS011;49099;28.428;-16.488;2022-10-18T01:07:08;11.65;;;2.00;;
63008;SDS011;49099;28.428;-16.488;2022-10-18T01:15:24;8.02;;;1.77;;
63008;SDS011;49099;28.428;-16.488;2022-10-18T01:17:59;8.95;;;2.20;;
63008;SDS011;49099;28.428;-16.488;2022-10-18T01:32:04;8.10;;;2.05;;
63008;SDS011;49099;28.428;-16.488;2022-10-18T01:34:56;10.25;;;2.15;;
63008;SDS011;49099;28.428;-16.488;2022-10-18T01:37:28;8.75;;;2.33;;
63008;SDS011;49099;28.428;-16.488;2022-10-18T01:39:57;9.23;;;2.20;;
63008;SDS011;49099;28.428;-16.488;2022-10-18T01:42:25;9.40;;;2.30;;
63008;SDS011;49099;28.428;-16.488;2022-10-18T01:44:53;8.73;;;2.17;;
63008;SDS011;49099;28.428;-16.488;2022-10-18T01:47:22;8.32;;;1.98;;
63008;SDS011;49099;28.428;-16.488;2022-10-18T01:49:55;7.78;;;2.10;;
63008;SDS011;49099;28.428;-16.488;2022-10-18T01:52:24;7.72;;;1.90;;
63008;SDS011;49099;28.428;-16.488;2022-10-18T01:54:51;9.25;;;1.95;;
63008;SDS011;49099;28.428;-16.488;2022-10-18T01:57:38;7.00;;;1.80;;
63008;SDS011;49099;28.428;-16.488;2022-10-18T02:00:12;10.43;;;1.95;;
63008;SDS011;49099;28.428;-16.488;2022-10-18T02:02:53;9.85;;;2.03;;
63008;SDS011;49099;28.428;-16.488;2022-10-18T02:05:29;10.00;;;1.98;;
63008;SDS011;49099;28.428;-16.488;2022-10-18T02:08:10;9.63;;;1.95;;
63008;SDS011;49099;28.428;-16.488;2022-10-18T02:13:43;9.40;;;1.90;;
63008;SDS011;49099;28.428;-16.488;2022-10-18T02:16:31;8.03;;;2.13;;
63008;SDS011;49099;28.428;-16.488;2022-10-18T02:19:19;8.05;;;1.80;;
63008;SDS011;49099;28.428;-16.488;2022-10-18T02:21:56;10.27;;;2.33;;
63008;SDS011;49099;28.428;-16.488;2022-10-18T02:24:26;6.45;;;1.80;;
63008;SDS011;49099;28.428;-16.488;2022-10-18T02:26:59;7.07;;;1.92;;
63008;SDS011;49099;28.428;-16.488;2022-10-18T02:29:26;6.45;;;1.92;;
63008;SDS011;49099;28.428;-16.488;2022-10-18T02:31:55;9.00;;;2.03;;
63008;SDS011;49099;28.428;-16.488;2022-10-18T02:34:34;6.90;;;1.67;;
63008;SDS011;49099;28.428;-16.488;2022-10-18T02:37:03;8.45;;;2.03;;
63008;SDS011;49099;28.428;-16.488;2022-10-18T02:39:34;8.95;;;1.92;;
63008;SDS011;49099;28.428;-16.488;2022-10-18T02:42:04;14.45;;;2.15;;
63008;SDS011;49099;28.428;-16.488;2022-10-18T02:44:32;5.65;;;1.75;;
63008;SDS011;49099;28.428;-16.488;2022-10-18T02:47:03;9.82;;;2.40;;
63008;SDS011;49099;28.428;-16.488;2022-10-18T02:49:31;8.32;;;1.90;;
63008;SDS011;49099;28.428;-16.488;2022-10-18T02:51:58;8.07;;;2.00;;
63008;SDS011;49099;28.428;-16.488;2022-10-18T02:54:26;11.50;;;1.95;;
63008;SDS011;49099;28.428;-16.488;2022-10-18T02:56:53;10.48;;;1.75;;
63008;SDS011;49099;28.428;-16.488;2022-10-18T02:59:20;8.75;;;1.95;;
63008;SDS011;49099;28.428;-16.488;2022-10-18T03:01:47;6.20;;;1.80;;
63008;SDS011;49099;28.428;-16.488;2022-10-18T03:04:14;9.57;;;1.88;;
63008;SDS011;49099;28.428;-16.488;2022-10-18T03:06:42;9.35;;;2.08;;
63008;SDS011;49099;28.428;-16.488;2022-10-18T03:09:09;6.47;;;1.60;;
63008;SDS011;49099;28.428;-16.488;2022-10-18T03:11:36;6.43;;;1.77;;
63008;SDS011;49099;28.428;-16.488;2022-10-18T03:14:03;8.25;;;2.28;;
63008;SDS011;49099;28.428;-16.488;2022-10-18T03:16:30;9.48;;;1.90;;
63008;SDS011;49099;28.428;-16.488;2022-10-18T03:18:59;11.90;;;2.30;;
63008;SDS011;49099;28.428;-16.488;2022-10-18T03:21:26;8.80;;;2.00;;
63008;SDS011;49099;28.428;-16.488;2022-10-18T03:23:53;10.82;;;2.30;;
63008;SDS011;49099;28.428;-16.488;2022-10-18T03:26:21;8.10;;;2.10;;
63008;SDS011;49099;28.428;-16.488;2022-10-18T03:28:48;11.77;;;2.42;;
63008;SDS011;49099;28.428;-16.488;2022-10-18T03:31:15;8.60;;;1.90;;
63008;SDS011;49099;28.428;-16.488;2022-10-18T03:33:43;8.80;;;2.03;;
63008;SDS011;49099;28.428;-16.488;2022-10-18T03:36:10;9.90;;;2.20;;
63008;SDS011;49099;28.428;-16.488;2022-10-18T03:38:37;10.63;;;2.05;;
63008;SDS011;49099;28.428;-16.488;2022-10-18T03:41:04;7.40;;;2.00;;
63008;SDS011;49099;28.428;-16.488;2022-10-18T03:43:32;5.82;;;1.98;;
63008;SDS011;49099;28.428;-16.488;2022-10-18T03:45:59;8.93;;;2.00;;
63008;SDS011;49099;28.428;-16.488;2022-10-18T03:48:27;6.53;;;1.85;;
63008;SDS011;49099;28.428;-16.488;2022-10-18T03:50:54;6.70;;;1.52;;
63008;SDS011;49099;28.428;-16.488;2022-10-18T03:53:21;5.65;;;1.67;;
63008;SDS011;49099;28.428;-16.488;2022-10-18T03:55:52;8.50;;;2.22;;
63008;SDS011;49099;28.428;-16.488;2022-10-18T03:58:20;6.57;;;2.10;;
63008;SDS011;49099;28.428;-16.488;2022-10-18T04:00:48;9.50;;;2.30;;
63008;SDS011;49099;28.428;-16.488;2022-10-18T04:03:16;12.00;;;2.20;;
63008;SDS011;49099;28.428;-16.488;2022-10-18T04:05:45;7.43;;;1.80;;
63008;SDS011;49099;28.428;-16.488;2022-10-18T04:08:12;6.95;;;2.15;;
63008;SDS011;49099;28.428;-16.488;2022-10-18T04:10:40;10.45;;;1.90;;
63008;SDS011;49099;28.428;-16.488;2022-10-18T04:13:08;10.93;;;2.00;;
63008;SDS011;49099;28.428;-16.488;2022-10-18T04:15:35;6.43;;;2.00;;
63008;SDS011;49099;28.428;-16.488;2022-10-18T04:18:02;7.82;;;1.90;;
63008;SDS011;49099;28.428;-16.488;2022-10-18T04:20:29;5.45;;;1.80;;
63008;SDS011;49099;28.428;-16.488;2022-10-18T04:22:57;12.00;;;2.10;;
63008;SDS011;49099;28.428;-16.488;2022-10-18T04:25:24;10.75;;;2.50;;
63008;SDS011;49099;28.428;-16.488;2022-10-18T04:27:51;10.80;;;2.13;;
63008;SDS011;49099;28.428;-16.488;2022-10-18T04:30:18;8.77;;;2.20;;
63008;SDS011;49099;28.428;-16.488;2022-10-18T04:32:45;9.77;;;2.42;;
63008;SDS011;49099;28.428;-16.488;2022-10-18T04:35:12;6.90;;;1.92;;
63008;SDS011;49099;28.428;-16.488;2022-10-18T04:37:40;7.53;;;2.10;;
63008;SDS011;49099;28.428;-16.488;2022-10-18T04:40:07;7.35;;;1.80;;
63008;SDS011;49099;28.428;-16.488;2022-10-18T04:42:35;7.00;;;1.80;;
63008;SDS011;49099;28.428;-16.488;2022-10-18T04:45:02;6.68;;;1.77;;
63008;SDS011;49099;28.428;-16.488;2022-10-18T04:47:29;9.90;;;2.15;;
63008;SDS011;49099;28.428;-16.488;2022-10-18T04:49:57;10.48;;;2.20;;
63008;SDS011;49099;28.428;-16.488;2022-10-18T04:52:24;7.95;;;1.90;;
63008;SDS011;49099;28.428;-16.488;2022-10-18T04:54:51;7.15;;;2.05;;
63008;SDS011;49099;28.428;-16.488;2022-10-18T04:57:18;9.27;;;2.05;;
63008;SDS011;49099;28.428;-16.488;2022-10-18T04:59:45;10.10;;;2.28;;
63008;SDS011;49099;28.428;-16.488;2022-10-18T05:02:13;7.18;;;2.00;;
63008;SDS011;49099;28.428;-16.488;2022-10-18T05:04:40;9.02;;;2.13;;
63008;SDS011;49099;28.428;-16.488;2022-10-18T05:07:07;8.50;;;2.10;;
63008;SDS011;49099;28.428;-16.488;2022-10-18T05:09:34;18.15;;;2.40;;
63008;SDS011;49099;28.428;-16.488;2022-10-18T05:12:01;9.40;;;1.98;;
63008;SDS011;49099;28.428;-16.488;2022-10-18T05:14:28;7.65;;;1.88;;
63008;SDS011;49099;28.428;-16.488;2022-10-18T05:16:55;10.02;;;2.03;;
63008;SDS011;49099;28.428;-16.488;2022-10-18T05:19:23;12.68;;;2.30;;
63008;SDS011;49099;28.428;-16.488;2022-10-18T05:21:50;9.18;;;2.10;;
63008;SDS011;49099;28.428;-16.488;2022-10-18T05:24:17;7.65;;;2.38;;
63008;SDS011;49099;28.428;-16.488;2022-10-18T05:26:47;11.00;;;2.10;;
63008;SDS011;49099;28.428;-16.488;2022-10-18T05:29:14;9.20;;;2.08;;
63008;SDS011;49099;28.428;-16.488;2022-10-18T05:31:41;9.20;;;2.25;;
63008;SDS011;49099;28.428;-16.488;2022-10-18T05:34:08;7.72;;;1.80;;
63008;SDS011;49099;28.428;-16.488;2022-10-18T05:36:35;9.48;;;1.60;;
63008;SDS011;49099;28.428;-16.488;2022-10-18T05:39:03;7.57;;;2.28;;
63008;SDS011;49099;28.428;-16.488;2022-10-18T05:41:31;7.00;;;1.70;;
63008;SDS011;49099;28.428;-16.488;2022-10-18T05:44:01;7.43;;;2.25;;
63008;SDS011;49099;28.428;-16.488;2022-10-18T05:46:30;8.40;;;2.05;;
63008;SDS011;49099;28.428;-16.488;2022-10-18T05:48:57;10.32;;;2.83;;
63008;SDS011;49099;28.428;-16.488;2022-10-18T05:51:25;5.78;;;1.70;;
63008;SDS011;49099;28.428;-16.488;2022-10-18T05:53:52;13.82;;;2.40;;
63008;SDS011;49099;28.428;-16.488;2022-10-18T05:56:20;14.27;;;2.17;;
63008;SDS011;49099;28.428;-16.488;2022-10-18T05:58:50;5.97;;;1.85;;
63008;SDS011;49099;28.428;-16.488;2022-10-18T06:01:18;14.52;;;2.35;;
63008;SDS011;49099;28.428;-16.488;2022-10-18T06:03:45;8.00;;;2.10;;
63008;SDS011;49099;28.428;-16.488;2022-10-18T06:06:13;10.82;;;2.30;;
63008;SDS011;49099;28.428;-16.488;2022-10-18T06:08:41;8.32;;;1.90;;
63008;SDS011;49099;28.428;-16.488;2022-10-18T06:11:13;10.73;;;2.13;;
63008;SDS011;49099;28.428;-16.488;2022-10-18T06:13:45;8.50;;;2.00;;
63008;SDS011;49099;28.428;-16.488;2022-10-18T06:16:15;8.52;;;1.92;;
63008;SDS011;49099;28.428;-16.488;2022-10-18T06:18:47;9.63;;;2.10;;
63008;SDS011;49099;28.428;-16.488;2022-10-18T06:21:16;10.07;;;2.33;;
63008;SDS011;49099;28.428;-16.488;2022-10-18T06:23:50;10.80;;;2.25;;
63008;SDS011;49099;28.428;-16.488;2022-10-18T06:26:18;14.45;;;2.67;;
63008;SDS011;49099;28.428;-16.488;2022-10-18T06:28:45;11.50;;;2.50;;
63008;SDS011;49099;28.428;-16.488;2022-10-18T06:31:13;10.77;;;2.78;;
63008;SDS011;49099;28.428;-16.488;2022-10-18T06:33:40;14.85;;;2.58;;
63008;SDS011;49099;28.428;-16.488;2022-10-18T06:36:15;6.70;;;1.90;;
63008;SDS011;49099;28.428;-16.488;2022-10-18T06:38:44;9.43;;;2.40;;
63008;SDS011;49099;28.428;-16.488;2022-10-18T06:41:11;9.60;;;2.80;;
63008;SDS011;49099;28.428;-16.488;2022-10-18T06:43:38;14.15;;;2.78;;
63008;SDS011;49099;28.428;-16.488;2022-10-18T06:46:06;9.27;;;2.55;;
63008;SDS011;49099;28.428;-16.488;2022-10-18T06:48:34;8.52;;;2.20;;
63008;SDS011;49099;28.428;-16.488;2022-10-18T06:51:03;15.70;;;2.50;;
63008;SDS011;49099;28.428;-16.488;2022-10-18T06:53:33;11.48;;;2.60;;
63008;SDS011;49099;28.428;-16.488;2022-10-18T06:56:13;12.90;;;2.67;;
63008;SDS011;49099;28.428;-16.488;2022-10-18T06:58:41;10.27;;;2.03;;
63008;SDS011;49099;28.428;-16.488;2022-10-18T07:01:10;11.80;;;2.33;;
63008;SDS011;49099;28.428;-16.488;2022-10-18T07:03:38;11.30;;;2.10;;
63008;SDS011;49099;28.428;-16.488;2022-10-18T07:06:06;7.45;;;2.10;;
63008;SDS011;49099;28.428;-16.488;2022-10-18T07:08:35;10.70;;;2.55;;
63008;SDS011;49099;28.428;-16.488;2022-10-18T07:11:03;7.60;;;2.00;;
63008;SDS011;49099;28.428;-16.488;2022-10-18T07:13:31;13.15;;;2.78;;
63008;SDS011;49099;28.428;-16.488;2022-10-18T07:16:00;14.98;;;3.22;;
63008;SDS011;49099;28.428;-16.488;2022-10-18T07:18:33;8.80;;;2.30;;
63008;SDS011;49099;28.428;-16.488;2022-10-18T07:21:04;17.77;;;3.05;;
63008;SDS011;49099;28.428;-16.488;2022-10-18T07:23:37;12.27;;;2.42;;
63008;SDS011;49099;28.428;-16.488;2022-10-18T07:28:40;12.50;;;2.63;;
63008;SDS011;49099;28.428;-16.488;2022-10-18T07:31:09;10.38;;;2.20;;
63008;SDS011;49099;28.428;-16.488;2022-10-18T07:33:38;14.65;;;2.95;;
63008;SDS011;49099;28.428;-16.488;2022-10-18T07:36:06;9.10;;;2.22;;
63008;SDS011;49099;28.428;-16.488;2022-10-18T07:38:34;12.75;;;2.88;;
63008;SDS011;49099;28.428;-16.488;2022-10-18T07:41:03;12.35;;;2.67;;
63008;SDS011;49099;28.428;-16.488;2022-10-18T07:43:32;10.25;;;2.60;;
63008;SDS011;49099;28.428;-16.488;2022-10-18T07:46:01;10.93;;;2.30;;
63008;SDS011;49099;28.428;-16.488;2022-10-18T07:48:30;13.60;;;2.40;;
63008;SDS011;49099;28.428;-16.488;2022-10-18T07:50:58;11.50;;;2.50;;
63008;SDS011;49099;28.428;-16.488;2022-10-18T07:53:27;11.07;;;2.55;;
63008;SDS011;49099;28.428;-16.488;2022-10-18T07:55:58;14.50;;;2.50;;
63008;SDS011;49099;28.428;-16.488;2022-10-18T07:58:31;10.52;;;2.45;;
63008;SDS011;49099;28.428;-16.488;2022-10-18T08:01:02;10.95;;;2.25;;
63008;SDS011;49099;28.428;-16.488;2022-10-18T08:03:31;10.15;;;2.50;;
63008;SDS011;49099;28.428;-16.488;2022-10-18T08:05:58;9.57;;;2.80;;
63008;SDS011;49099;28.428;-16.488;2022-10-18T08:08:25;12.90;;;2.70;;
63008;SDS011;49099;28.428;-16.488;2022-10-18T08:10:53;11.18;;;2.78;;
63008;SDS011;49099;28.428;-16.488;2022-10-18T08:13:20;15.52;;;2.80;;
63008;SDS011;49099;28.428;-16.488;2022-10-18T08:15:47;14.38;;;3.33;;
63008;SDS011;49099;28.428;-16.488;2022-10-18T08:18:14;13.48;;;2.50;;
63008;SDS011;49099;28.428;-16.488;2022-10-18T08:20:42;12.07;;;2.80;;
63008;SDS011;49099;28.428;-16.488;2022-10-18T08:23:10;20.08;;;3.35;;
63008;SDS011;49099;28.428;-16.488;2022-10-18T08:25:37;11.52;;;2.83;;
63008;SDS011;49099;28.428;-16.488;2022-10-18T08:28:05;14.90;;;2.85;;
63008;SDS011;49099;28.428;-16.488;2022-10-18T08:30:33;12.93;;;3.05;;
63008;SDS011;49099;28.428;-16.488;2022-10-18T08:33:01;14.30;;;3.10;;
63008;SDS011;49099;28.428;-16.488;2022-10-18T08:35:29;10.38;;;2.88;;
63008;SDS011;49099;28.428;-16.488;2022-10-18T08:37:57;7.05;;;2.13;;
63008;SDS011;49099;28.428;-16.488;2022-10-18T08:40:25;11.55;;;2.50;;
63008;SDS011;49099;28.428;-16.488;2022-10-18T08:45:34;11.18;;;2.50;;
63008;SDS011;49099;28.428;-16.488;2022-10-18T08:48:19;11.68;;;2.67;;
63008;SDS011;49099;28.428;-16.488;2022-10-18T08:50:51;13.38;;;3.03;;
63008;SDS011;49099;28.428;-16.488;2022-10-18T08:53:42;12.75;;;2.70;;
63008;SDS011;49099;28.428;-16.488;2022-10-18T08:56:17;15.77;;;2.63;;
63008;SDS011;49099;28.428;-16.488;2022-10-18T08:58:49;11.07;;;2.70;;
63008;SDS011;49099;28.428;-16.488;2022-10-18T09:01:25;12.63;;;2.33;;
63008;SDS011;49099;28.428;-16.488;2022-10-18T09:07:23;13.95;;;2.60;;
63008;SDS011;49099;28.428;-16.488;2022-10-18T09:15:59;10.65;;;2.50;;
63008;SDS011;49099;28.428;-16.488;2022-10-18T09:21:30;12.80;;;2.72;;
63008;SDS011;49099;28.428;-16.488;2022-10-18T09:24:19;8.77;;;2.40;;
63008;SDS011;49099;28.428;-16.488;2022-10-18T09:27:11;12.73;;;2.92;;
63008;SDS011;49099;28.428;-16.488;2022-10-18T09:29:51;16.60;;;3.10;;
63008;SDS011;49099;28.428;-16.488;2022-10-18T09:35:26;12.23;;;2.53;;
63008;SDS011;49099;28.428;-16.488;2022-10-18T09:38:03;10.63;;;2.78;;
63008;SDS011;49099;28.428;-16.488;2022-10-18T09:40:35;12.95;;;2.70;;
63008;SDS011;49099;28.428;-16.488;2022-10-18T09:43:15;9.63;;;2.17;;
63008;SDS011;49099;28.428;-16.488;2022-10-18T09:45:46;13.85;;;2.92;;
63008;SDS011;49099;28.428;-16.488;2022-10-18T09:48:19;12.27;;;2.58;;
63008;SDS011;49099;28.428;-16.488;2022-10-18T09:51:09;17.90;;;2.58;;
63008;SDS011;49099;28.428;-16.488;2022-10-18T09:53:56;11.63;;;3.00;;
63008;SDS011;49099;28.428;-16.488;2022-10-18T09:56:35;12.07;;;2.70;;
63008;SDS011;49099;28.428;-16.488;2022-10-18T09:59:23;8.95;;;2.35;;
63008;SDS011;49099;28.428;-16.488;2022-10-18T10:01:55;10.43;;;2.97;;
63008;SDS011;49099;28.428;-16.488;2022-10-18T10:04:22;10.50;;;2.65;;
63008;SDS011;49099;28.428;-16.488;2022-10-18T10:06:50;14.35;;;2.65;;
63008;SDS011;49099;28.428;-16.488;2022-10-18T10:09:26;14.27;;;3.70;;
63008;SDS011;49099;28.428;-16.488;2022-10-18T10:12:01;13.80;;;3.05;;
63008;SDS011;49099;28.428;-16.488;2022-10-18T10:14:29;13.70;;;3.10;;
63008;SDS011;49099;28.428;-16.488;2022-10-18T10:16:57;13.70;;;3.05;;
63008;SDS011;49099;28.428;-16.488;2022-10-18T10:22:38;13.43;;;2.72;;
63008;SDS011;49099;28.428;-16.488;2022-10-18T10:25:17;16.10;;;3.00;;
63008;SDS011;49099;28.428;-16.488;2022-10-18T10:27:51;18.55;;;3.50;;
63008;SDS011;49099;28.428;-16.488;2022-10-18T10:30:23;14.73;;;3.05;;
63008;SDS011;49099;28.428;-16.488;2022-10-18T10:32:51;16.90;;;3.47;;
63008;SDS011;49099;28.428;-16.488;2022-10-18T10:35:23;16.27;;;3.30;;
63008;SDS011;49099;28.428;-16.488;2022-10-18T10:38:24;22.27;;;3.67;;
63008;SDS011;49099;28.428;-16.488;2022-10-18T10:40:53;19.42;;;3.83;;
63008;SDS011;49099;28.428;-16.488;2022-10-18T10:43:25;14.32;;;3.20;;
63008;SDS011;49099;28.428;-16.488;2022-10-18T10:48:40;31.90;;;5.53;;
63008;SDS011;49099;28.428;-16.488;2022-10-18T10:51:45;20.05;;;4.35;;
63008;SDS011;49099;28.428;-16.488;2022-10-18T10:54:34;14.45;;;3.35;;
63008;SDS011;49099;28.428;-16.488;2022-10-18T10:57:06;27.08;;;5.20;;
63008;SDS011;49099;28.428;-16.488;2022-10-18T10:59:51;76.70;;;12.00;;
63008;SDS011;49099;28.428;-16.488;2022-10-18T11:04:50;32.83;;;5.53;;
63008;SDS011;49099;28.428;-16.488;2022-10-18T11:12:52;43.75;;;7.50;;
63008;SDS011;49099;28.428;-16.488;2022-10-18T11:15:39;33.78;;;6.63;;
63008;SDS011;49099;28.428;-16.488;2022-10-18T11:20:51;18.05;;;4.25;;
63008;SDS011;49099;28.428;-16.488;2022-10-18T11:23:24;25.48;;;4.43;;
63008;SDS011;49099;28.428;-16.488;2022-10-18T11:25:59;21.00;;;4.10;;
63008;SDS011;49099;28.428;-16.488;2022-10-18T11:31:11;17.83;;;4.05;;
63008;SDS011;49099;28.428;-16.488;2022-10-18T11:36:55;25.10;;;4.63;;
63008;SDS011;49099;28.428;-16.488;2022-10-18T11:45:15;17.33;;;3.42;;
63008;SDS011;49099;28.428;-16.488;2022-10-18T11:51:29;26.10;;;4.93;;
63008;SDS011;49099;28.428;-16.488;2022-10-18T12:05:49;12.82;;;3.20;;
63008;SDS011;49099;28.428;-16.488;2022-10-18T12:08:35;17.33;;;3.38;;
63008;SDS011;49099;28.428;-16.488;2022-10-18T12:11:08;16.00;;;3.30;;
63008;SDS011;49099;28.428;-16.488;2022-10-18T12:13:54;12.73;;;2.50;;
63008;SDS011;49099;28.428;-16.488;2022-10-18T12:16:26;20.92;;;3.58;;
63008;SDS011;49099;28.428;-16.488;2022-10-18T12:19:17;10.48;;;2.85;;
63008;SDS011;49099;28.428;-16.488;2022-10-18T12:21:52;13.65;;;2.50;;
63008;SDS011;49099;28.428;-16.488;2022-10-18T12:24:24;11.65;;;2.92;;
63008;SDS011;49099;28.428;-16.488;2022-10-18T12:26:56;13.25;;;2.38;;
63008;SDS011;49099;28.428;-16.488;2022-10-18T12:32:25;14.93;;;2.78;;
63008;SDS011;49099;28.428;-16.488;2022-10-18T12:34:59;17.83;;;2.90;;
63008;SDS011;49099;28.428;-16.488;2022-10-18T12:37:34;14.85;;;2.85;;
63008;SDS011;49099;28.428;-16.488;2022-10-18T12:40:32;12.55;;;2.75;;
63008;SDS011;49099;28.428;-16.488;2022-10-18T12:43:26;17.33;;;2.53;;
63008;SDS011;49099;28.428;-16.488;2022-10-18T12:46:04;11.35;;;2.35;;
63008;SDS011;49099;28.428;-16.488;2022-10-18T12:48:40;10.02;;;2.40;;
63008;SDS011;49099;28.428;-16.488;2022-10-18T12:51:15;13.93;;;2.95;;
63008;SDS011;49099;28.428;-16.488;2022-10-18T13:09:24;20.15;;;3.63;;
63008;SDS011;49099;28.428;-16.488;2022-10-18T13:11:52;21.55;;;3.83;;
63008;SDS011;49099;28.428;-16.488;2022-10-18T13:14:30;12.77;;;3.38;;
63008;SDS011;49099;28.428;-16.488;2022-10-18T13:17:47;22.55;;;3.88;;
63008;SDS011;49099;28.428;-16.488;2022-10-18T13:20:41;16.40;;;3.10;;
63008;SDS011;49099;28.428;-16.488;2022-10-18T13:31:46;12.52;;;2.85;;
63008;SDS011;49099;28.428;-16.488;2022-10-18T13:34:26;27.05;;;3.70;;
63008;SDS011;49099;28.428;-16.488;2022-10-18T13:37:02;14.20;;;2.90;;
63008;SDS011;49099;28.428;-16.488;2022-10-18T13:39:32;18.42;;;3.30;;
63008;SDS011;49099;28.428;-16.488;2022-10-18T13:44:27;12.85;;;2.95;;
63008;SDS011;49099;28.428;-16.488;2022-10-18T13:52:25;12.88;;;3.03;;
63008;SDS011;49099;28.428;-16.488;2022-10-18T14:00:28;14.10;;;3.55;;
63008;SDS011;49099;28.428;-16.488;2022-10-18T14:06:27;17.38;;;2.90;;
63008;SDS011;49099;28.428;-16.488;2022-10-18T14:09:22;18.70;;;3.45;;
63008;SDS011;49099;28.428;-16.488;2022-10-18T14:15:01;12.70;;;3.08;;
63008;SDS011;49099;28.428;-16.488;2022-10-18T14:20:31;18.05;;;3.17;;
63008;SDS011;49099;28.428;-16.488;2022-10-18T14:23:33;16.30;;;3.22;;
63008;SDS011;49099;28.428;-16.488;2022-10-18T14:26:07;13.98;;;3.25;;
63008;SDS011;49099;28.428;-16.488;2022-10-18T14:28:38;15.63;;;3.22;;
63008;SDS011;49099;28.428;-16.488;2022-10-18T14:31:26;12.98;;;3.00;;
63008;SDS011;49099;28.428;-16.488;2022-10-18T14:33:56;16.20;;;2.80;;
63008;SDS011;49099;28.428;-16.488;2022-10-18T14:36:35;18.23;;;3.25;;
63008;SDS011;49099;28.428;-16.488;2022-10-18T14:39:15;16.25;;;3.10;;
63008;SDS011;49099;28.428;-16.488;2022-10-18T14:41:54;16.05;;;2.58;;
63008;SDS011;49099;28.428;-16.488;2022-10-18T14:44:26;13.00;;;2.83;;
63008;SDS011;49099;28.428;-16.488;2022-10-18T14:46:59;16.55;;;3.00;;
63008;SDS011;49099;28.428;-16.488;2022-10-18T14:49:26;14.60;;;2.53;;
63008;SDS011;49099;28.428;-16.488;2022-10-18T14:51:55;13.00;;;3.50;;
63008;SDS011;49099;28.428;-16.488;2022-10-18T14:54:31;12.32;;;3.05;;
63008;SDS011;49099;28.428;-16.488;2022-10-18T14:56:59;14.20;;;3.17;;
63008;SDS011;49099;28.428;-16.488;2022-10-18T14:59:28;16.30;;;3.30;;
63008;SDS011;49099;28.428;-16.488;2022-10-18T15:02:02;15.50;;;3.13;;
63008;SDS011;49099;28.428;-16.488;2022-10-18T15:04:42;14.48;;;2.60;;
63008;SDS011;49099;28.428;-16.488;2022-10-18T15:07:14;14.65;;;3.00;;
63008;SDS011;49099;28.428;-16.488;2022-10-18T15:09:43;16.17;;;2.70;;
63008;SDS011;49099;28.428;-16.488;2022-10-18T15:12:11;9.95;;;2.50;;
63008;SDS011;49099;28.428;-16.488;2022-10-18T15:14:40;17.27;;;2.97;;
63008;SDS011;49099;28.428;-16.488;2022-10-18T15:17:28;14.73;;;3.05;;
63008;SDS011;49099;28.428;-16.488;2022-10-18T15:19:58;11.43;;;2.78;;
63008;SDS011;49099;28.428;-16.488;2022-10-18T15:22:31;12.70;;;3.03;;
63008;SDS011;49099;28.428;-16.488;2022-10-18T15:25:07;14.25;;;2.97;;
63008;SDS011;49099;28.428;-16.488;2022-10-18T15:27:56;11.68;;;2.50;;
63008;SDS011;49099;28.428;-16.488;2022-10-18T15:32:56;14.55;;;3.03;;
63008;SDS011;49099;28.428;-16.488;2022-10-18T15:35:32;13.00;;;2.70;;
63008;SDS011;49099;28.428;-16.488;2022-10-18T15:38:14;13.93;;;3.22;;
63008;SDS011;49099;28.428;-16.488;2022-10-18T15:40:50;9.40;;;2.38;;
63008;SDS011;49099;28.428;-16.488;2022-10-18T15:45:54;13.85;;;3.00;;
63008;SDS011;49099;28.428;-16.488;2022-10-18T15:48:32;20.20;;;3.40;;
63008;SDS011;49099;28.428;-16.488;2022-10-18T15:51:01;16.67;;;3.00;;
63008;SDS011;49099;28.428;-16.488;2022-10-18T15:58:53;11.23;;;2.70;;
63008;SDS011;49099;28.428;-16.488;2022-10-18T16:01:25;13.68;;;2.97;;
63008;SDS011;49099;28.428;-16.488;2022-10-18T16:03:54;11.57;;;2.95;;
63008;SDS011;49099;28.428;-16.488;2022-10-18T16:06:22;13.32;;;2.60;;
63008;SDS011;49099;28.428;-16.488;2022-10-18T16:08:49;11.45;;;2.78;;
63008;SDS011;49099;28.428;-16.488;2022-10-18T16:11:19;12.45;;;2.70;;
63008;SDS011;49099;28.428;-16.488;2022-10-18T16:13:47;15.98;;;3.10;;
63008;SDS011;49099;28.428;-16.488;2022-10-18T16:16:21;14.38;;;2.78;;
63008;SDS011;49099;28.428;-16.488;2022-10-18T16:18:55;15.25;;;2.67;;
63008;SDS011;49099;28.428;-16.488;2022-10-18T16:21:24;16.02;;;2.97;;
63008;SDS011;49099;28.428;-16.488;2022-10-18T16:23:53;17.92;;;3.05;;
63008;SDS011;49099;28.428;-16.488;2022-10-18T16:26:21;11.20;;;2.60;;
63008;SDS011;49099;28.428;-16.488;2022-10-18T16:28:49;15.80;;;3.40;;
63008;SDS011;49099;28.428;-16.488;2022-10-18T16:31:22;17.92;;;3.20;;
63008;SDS011;49099;28.428;-16.488;2022-10-18T16:33:51;15.30;;;3.15;;
63008;SDS011;49099;28.428;-16.488;2022-10-18T16:36:22;14.75;;;3.20;;
63008;SDS011;49099;28.428;-16.488;2022-10-18T16:38:51;11.77;;;3.53;;
63008;SDS011;49099;28.428;-16.488;2022-10-18T16:41:23;15.57;;;3.20;;
63008;SDS011;49099;28.428;-16.488;2022-10-18T16:43:50;16.45;;;3.00;;
63008;SDS011;49099;28.428;-16.488;2022-10-18T16:46:19;10.25;;;2.88;;
63008;SDS011;49099;28.428;-16.488;2022-10-18T16:48:53;14.07;;;2.75;;
63008;SDS011;49099;28.428;-16.488;2022-10-18T16:51:21;15.32;;;2.72;;
63008;SDS011;49099;28.428;-16.488;2022-10-18T16:53:49;14.68;;;2.65;;
63008;SDS011;49099;28.428;-16.488;2022-10-18T16:56:20;9.68;;;2.75;;
63008;SDS011;49099;28.428;-16.488;2022-10-18T16:58:50;10.30;;;2.63;;
63008;SDS011;49099;28.428;-16.488;2022-10-18T17:01:18;14.30;;;3.05;;
63008;SDS011;49099;28.428;-16.488;2022-10-18T17:03:46;18.20;;;3.25;;
63008;SDS011;49099;28.428;-16.488;2022-10-18T17:08:43;13.30;;;2.90;;